Time;durP1;ratioP1;P1;durP2;ratioP2;P2;SDS_P1;SDS_P2;PMS_P1;PMS_P2;Temp;Humidity;BMP_temperature;BMP_pressure;BME280_temperature;BME280_humidity;BME280_pressure;Samples;Min_cycle;Max_cycle;Signal;HPM_P1;HPM_P2
2021/05/30 00:00:32;;;;;;;10.77;5.10;;;;;;;;;;5074881;28;20493;-72
2021/05/30 00:02:58;;;;;;;8.65;5.07;;;;;;;;;;5075334;28;20107;-72
2021/05/30 00:05:24;;;;;;;5.35;4.70;;;;;;;;;;5075048;28;20024;-72
2021/05/30 00:07:50;;;;;;;7.90;5.40;;;;;;;;;;5075252;28;20495;-71
2021/05/30 00:10:16;;;;;;;12.18;5.28;;;;;;;;;;5075254;28;20029;-72
2021/05/30 00:12:42;;;;;;;5.25;4.65;;;;;;;;;;5074783;28;20025;-72
2021/05/30 00:15:10;;;;;;;5.93;4.97;;;;;;;;;;5075540;28;20523;-72
2021/05/30 00:17:36;;;;;;;5.70;5.03;;;;;;;;;;5074719;28;20039;-71
2021/05/30 00:20:03;;;;;;;5.68;4.95;;;;;;;;;;5075237;28;20028;-72
2021/05/30 00:22:29;;;;;;;6.50;4.93;;;;;;;;;;5074560;28;20028;-72
2021/05/30 00:24:55;;;;;;;6.78;5.15;;;;;;;;;;5074856;28;20470;-72
2021/05/30 00:27:21;;;;;;;5.22;4.70;;;;;;;;;;5074681;28;20031;-72
2021/05/30 00:29:48;;;;;;;6.65;4.80;;;;;;;;;;5075288;28;20021;-72
2021/05/30 00:32:14;;;;;;;8.43;4.50;;;;;;;;;;5074969;28;20036;-72
2021/05/30 00:34:40;;;;;;;5.07;4.57;;;;;;;;;;5074750;28;20039;-71
2021/05/30 00:37:06;;;;;;;6.35;4.95;;;;;;;;;;5075156;28;20032;-71
2021/05/30 00:39:32;;;;;;;5.95;4.97;;;;;;;;;;5074659;28;20473;-72
2021/05/30 00:41:58;;;;;;;5.13;4.28;;;;;;;;;;5073850;28;20035;-72
2021/05/30 00:44:25;;;;;;;5.32;4.82;;;;;;;;;;5073062;28;20028;-72
2021/05/30 00:46:53;;;;;;;5.70;4.82;;;;;;;;;;5073176;28;20020;-72
2021/05/30 00:49:19;;;;;;;5.20;4.53;;;;;;;;;;5073043;28;20535;-72
2021/05/30 00:51:45;;;;;;;6.18;4.53;;;;;;;;;;5073005;28;20057;-71
2021/05/30 00:54:11;;;;;;;5.88;4.75;;;;;;;;;;5072685;28;20040;-71
2021/05/30 00:56:38;;;;;;;6.88;4.97;;;;;;;;;;5073395;28;20059;-72
2021/05/30 00:59:04;;;;;;;5.20;4.40;;;;;;;;;;5073922;28;20020;-72
2021/05/30 01:01:30;;;;;;;8.45;5.65;;;;;;;;;;5073015;28;20112;-72
2021/05/30 01:03:57;;;;;;;7.57;4.40;;;;;;;;;;5073427;28;20040;-71
2021/05/30 01:06:25;;;;;;;5.30;4.80;;;;;;;;;;5072997;28;20469;-72
2021/05/30 01:08:51;;;;;;;5.47;4.95;;;;;;;;;;5073568;28;20126;-71
2021/05/30 01:11:17;;;;;;;5.35;4.85;;;;;;;;;;5073219;28;20027;-72
2021/05/30 01:13:44;;;;;;;5.80;4.90;;;;;;;;;;5073054;28;20045;-72
2021/05/30 01:16:10;;;;;;;5.97;5.38;;;;;;;;;;5073641;28;20028;-72
2021/05/30 01:18:36;;;;;;;5.20;4.70;;;;;;;;;;5073628;28;20115;-71
2021/05/30 01:21:02;;;;;;;6.22;4.70;;;;;;;;;;5073153;28;20029;-72
2021/05/30 01:23:28;;;;;;;6.40;5.43;;;;;;;;;;5073427;28;20060;-72
2021/05/30 01:26:00;;;;;;;5.30;4.50;;;;;;;;;;5073358;28;20029;-72
2021/05/30 01:28:26;;;;;;;5.80;5.20;;;;;;;;;;5073943;28;20470;-72
2021/05/30 01:30:52;;;;;;;5.43;4.93;;;;;;;;;;5077010;28;20021;-72
2021/05/30 01:33:18;;;;;;;8.48;6.75;;;;;;;;;;5076609;28;20028;-71
2021/05/30 01:35:47;;;;;;;5.30;4.80;;;;;;;;;;5076773;28;20450;-71
2021/05/30 01:38:13;;;;;;;6.38;5.63;;;;;;;;;;5076748;28;20028;-73
2021/05/30 01:40:39;;;;;;;6.45;5.53;;;;;;;;;;5076338;28;20035;-71
2021/05/30 01:43:05;;;;;;;5.45;4.90;;;;;;;;;;5077107;28;20117;-71
2021/05/30 01:45:33;;;;;;;6.18;5.57;;;;;;;;;;5076454;28;20362;-72
2021/05/30 01:47:59;;;;;;;5.50;4.97;;;;;;;;;;5076723;28;20028;-71
2021/05/30 01:50:26;;;;;;;6.68;6.07;;;;;;;;;;5076061;28;20032;-72
2021/05/30 01:52:52;;;;;;;6.35;5.75;;;;;;;;;;5076335;28;20029;-72
2021/05/30 01:55:30;;;;;;;5.90;5.40;;;;;;;;;;5075918;28;20378;-72
2021/05/30 01:57:56;;;;;;;5.72;5.07;;;;;;;;;;5076312;28;20108;-72
2021/05/30 02:00:23;;;;;;;7.75;4.97;;;;;;;;;;5076067;28;20027;-72
2021/05/30 02:02:50;;;;;;;6.15;5.20;;;;;;;;;;5076713;28;20111;-71
2021/05/30 02:05:16;;;;;;;7.68;5.28;;;;;;;;;;5076633;28;20031;-71
2021/05/30 02:07:42;;;;;;;6.45;5.68;;;;;;;;;;5076414;28;20060;-72
2021/05/30 02:10:08;;;;;;;5.65;5.05;;;;;;;;;;5076335;28;20458;-73
2021/05/30 02:12:34;;;;;;;6.18;5.57;;;;;;;;;;5076181;28;20032;-72
2021/05/30 02:15:01;;;;;;;6.63;6.03;;;;;;;;;;5076783;28;20063;-71
2021/05/30 02:17:27;;;;;;;8.20;5.88;;;;;;;;;;5075761;28;20433;-72
2021/05/30 02:19:54;;;;;;;10.13;5.85;;;;;;;;;;5076422;28;20115;-72
2021/05/30 02:22:20;;;;;;;6.65;5.35;;;;;;;;;;5075900;28;20063;-74
2021/05/30 02:24:46;;;;;;;5.55;4.93;;;;;;;;;;5076541;28;20039;-73
2021/05/30 02:27:13;;;;;;;6.07;5.47;;;;;;;;;;5076321;28;20521;-74
2021/05/30 02:29:40;;;;;;;7.60;5.30;;;;;;;;;;5075976;28;20369;-74
2021/05/30 02:32:06;;;;;;;6.07;5.28;;;;;;;;;;5075608;28;20027;-74
2021/05/30 02:34:32;;;;;;;6.68;5.57;;;;;;;;;;5075672;28;20162;-74
2021/05/30 02:36:59;;;;;;;6.18;5.57;;;;;;;;;;5076136;28;20370;-74
2021/05/30 02:39:25;;;;;;;5.97;5.20;;;;;;;;;;5075949;28;20557;-74
2021/05/30 02:41:51;;;;;;;5.50;5.00;;;;;;;;;;5076379;28;20023;-75
2021/05/30 02:44:17;;;;;;;5.88;5.22;;;;;;;;;;5075629;28;20016;-75
2021/05/30 02:46:43;;;;;;;5.97;5.38;;;;;;;;;;5075978;28;20033;-73
2021/05/30 02:49:09;;;;;;;6.75;4.75;;;;;;;;;;5075658;28;20484;-73
2021/05/30 02:51:35;;;;;;;6.78;5.45;;;;;;;;;;5075191;28;20425;-75
2021/05/30 02:54:01;;;;;;;8.63;4.30;;;;;;;;;;5075815;28;20032;-74
2021/05/30 02:56:28;;;;;;;5.20;4.78;;;;;;;;;;5075854;28;20028;-73
2021/05/30 02:58:54;;;;;;;5.18;4.68;;;;;;;;;;5076002;28;20103;-74
2021/05/30 03:01:20;;;;;;;5.43;4.90;;;;;;;;;;5075569;28;20024;-74
2021/05/30 03:03:47;;;;;;;5.57;5.00;;;;;;;;;;5075547;28;20094;-74
2021/05/30 03:06:13;;;;;;;7.53;5.15;;;;;;;;;;5075281;28;20032;-75
2021/05/30 03:08:39;;;;;;;6.20;5.10;;;;;;;;;;5075968;28;20032;-74
2021/05/30 03:11:05;;;;;;;5.43;4.90;;;;;;;;;;5075778;28;20028;-73
2021/05/30 03:13:31;;;;;;;6.55;5.95;;;;;;;;;;5075579;28;20488;-74
2021/05/30 03:15:58;;;;;;;5.25;4.78;;;;;;;;;;5075324;28;20433;-74
2021/05/30 03:18:24;;;;;;;5.38;4.88;;;;;;;;;;5075161;28;20115;-74
2021/05/30 03:20:50;;;;;;;4.97;4.50;;;;;;;;;;5074978;28;20024;-74
2021/05/30 03:23:17;;;;;;;5.30;4.80;;;;;;;;;;5075343;28;20098;-75
2021/05/30 03:25:43;;;;;;;5.70;5.20;;;;;;;;;;5075526;28;20034;-72
2021/05/30 03:28:09;;;;;;;5.53;5.03;;;;;;;;;;5075319;28;20028;-74
2021/05/30 03:30:35;;;;;;;5.10;4.60;;;;;;;;;;5074778;28;20462;-73
2021/05/30 03:33:01;;;;;;;6.03;5.13;;;;;;;;;;5075661;28;20428;-73
2021/05/30 03:35:27;;;;;;;5.93;5.32;;;;;;;;;;5074520;28;20028;-73
2021/05/30 03:37:54;;;;;;;5.88;5.28;;;;;;;;;;5074819;28;20028;-73
2021/05/30 03:40:29;;;;;;;6.38;5.53;;;;;;;;;;5074940;28;20025;-73
2021/05/30 03:42:55;;;;;;;9.15;5.28;;;;;;;;;;5075508;28;20355;-74
2021/05/30 03:45:21;;;;;;;5.70;4.72;;;;;;;;;;5075057;28;20017;-73
2021/05/30 03:47:47;;;;;;;5.97;5.13;;;;;;;;;;5074675;28;20082;-73
2021/05/30 03:50:13;;;;;;;6.38;5.78;;;;;;;;;;5074415;28;20025;-75
2021/05/30 03:52:39;;;;;;;5.90;5.13;;;;;;;;;;5074919;28;20052;-73
2021/05/30 03:55:06;;;;;;;6.53;5.68;;;;;;;;;;5074665;28;20070;-74
2021/05/30 03:57:32;;;;;;;5.57;5.07;;;;;;;;;;5074782;28;20052;-75
2021/05/30 03:59:59;;;;;;;6.07;5.47;;;;;;;;;;5074740;28;20031;-74
2021/05/30 04:02:25;;;;;;;6.85;4.88;;;;;;;;;;5074054;28;20020;-72
2021/05/30 04:04:51;;;;;;;6.68;5.97;;;;;;;;;;5074441;28;20025;-72
2021/05/30 04:07:17;;;;;;;6.07;5.47;;;;;;;;;;5074695;28;20031;-71
2021/05/30 04:09:43;;;;;;;5.43;4.93;;;;;;;;;;5074979;28;20028;-75
2021/05/30 04:12:10;;;;;;;6.05;5.45;;;;;;;;;;5074719;28;20060;-74
2021/05/30 04:14:36;;;;;;;5.32;4.82;;;;;;;;;;5074254;28;20446;-74
2021/05/30 04:17:02;;;;;;;6.68;5.13;;;;;;;;;;5074508;28;20028;-75
2021/05/30 04:19:28;;;;;;;5.82;5.25;;;;;;;;;;5074345;28;20074;-74
2021/05/30 04:21:54;;;;;;;5.47;4.97;;;;;;;;;;5074850;28;20031;-74
2021/05/30 04:24:20;;;;;;;5.20;4.70;;;;;;;;;;5074182;28;20432;-75
2021/05/30 04:26:46;;;;;;;4.65;4.25;;;;;;;;;;5074435;28;20032;-72
2021/05/30 04:29:12;;;;;;;4.40;4.00;;;;;;;;;;5074558;28;20035;-73
2021/05/30 04:31:38;;;;;;;4.25;3.88;;;;;;;;;;5074471;28;20017;-74
2021/05/30 04:34:04;;;;;;;6.55;4.38;;;;;;;;;;5074381;28;20109;-74
2021/05/30 04:36:31;;;;;;;6.65;4.40;;;;;;;;;;5074246;28;20462;-74
2021/05/30 04:38:57;;;;;;;5.10;4.60;;;;;;;;;;5075033;28;20033;-74
2021/05/30 04:41:23;;;;;;;5.10;4.45;;;;;;;;;;5074532;28;20032;-75
2021/05/30 04:43:49;;;;;;;5.15;3.92;;;;;;;;;;5088289;28;20032;-75
2021/05/30 04:46:16;;;;;;;4.75;4.35;;;;;;;;;;5093579;28;20031;-76
2021/05/30 04:48:42;;;;;;;4.03;3.72;;;;;;;;;;5093770;28;20034;-75
2021/05/30 04:51:12;;;;;;;5.38;4.88;;;;;;;;;;5093832;28;20073;-76
2021/05/30 04:53:38;;;;;;;5.90;3.53;;;;;;;;;;5094376;28;20059;-75
2021/05/30 04:56:05;;;;;;;4.45;4.05;;;;;;;;;;5095819;28;20076;-78
2021/05/30 04:58:32;;;;;;;4.15;3.75;;;;;;;;;;5093859;28;20062;-77
2021/05/30 05:00:58;;;;;;;4.25;3.63;;;;;;;;;;5094054;28;20021;-78
2021/05/30 05:03:24;;;;;;;3.70;3.40;;;;;;;;;;5098254;28;20024;-75
2021/05/30 05:05:52;;;;;;;4.50;4.10;;;;;;;;;;5098994;28;20024;-77
2021/05/30 05:08:19;;;;;;;4.38;3.60;;;;;;;;;;5099499;28;20024;-75
2021/05/30 05:10:45;;;;;;;4.80;4.00;;;;;;;;;;5099782;28;20024;-77
2021/05/30 05:13:11;;;;;;;4.10;3.70;;;;;;;;;;5117509;28;20050;-76
2021/05/30 05:15:37;;;;;;;3.97;3.63;;;;;;;;;;5118909;28;20488;-79
2021/05/30 05:18:11;;;;;;;5.45;3.95;;;;;;;;;;5118561;28;20473;-75
2021/05/30 05:20:37;;;;;;;3.70;3.40;;;;;;;;;;5118625;28;20448;-75
2021/05/30 05:23:03;;;;;;;4.05;3.50;;;;;;;;;;5097222;28;20024;-75
2021/05/30 05:25:32;;;;;;;3.72;3.40;;;;;;;;;;5097213;28;20024;-76
2021/05/30 05:27:58;;;;;;;4.40;3.67;;;;;;;;;;5097834;28;20032;-76
2021/05/30 05:30:25;;;;;;;4.30;3.90;;;;;;;;;;5097497;28;20065;-75
2021/05/30 05:32:51;;;;;;;3.22;2.92;;;;;;;;;;5096166;28;20093;-72
2021/05/30 05:35:17;;;;;;;3.47;3.17;;;;;;;;;;5097060;28;20036;-72
2021/05/30 05:37:43;;;;;;;3.50;3.20;;;;;;;;;;5097091;28;20081;-72
2021/05/30 05:40:10;;;;;;;3.72;3.00;;;;;;;;;;5097691;28;20016;-73
2021/05/30 05:42:36;;;;;;;3.67;3.38;;;;;;;;;;5095712;28;20028;-76
2021/05/30 05:45:03;;;;;;;3.83;2.67;;;;;;;;;;5097807;28;20020;-78
2021/05/30 05:47:29;;;;;;;3.40;3.10;;;;;;;;;;5096978;28;20028;-75
2021/05/30 05:49:55;;;;;;;4.18;3.38;;;;;;;;;;5097194;28;20031;-77
2021/05/30 05:52:21;;;;;;;3.03;2.83;;;;;;;;;;5098552;28;20048;-75
2021/05/30 05:54:48;;;;;;;4.13;3.20;;;;;;;;;;5095707;28;20499;-76
2021/05/30 05:57:14;;;;;;;9.50;3.70;;;;;;;;;;5094317;28;20032;-76
2021/05/30 05:59:40;;;;;;;3.33;2.97;;;;;;;;;;5096164;28;20024;-75
2021/05/30 06:02:06;;;;;;;3.45;3.00;;;;;;;;;;5095981;28;20051;-78
2021/05/30 06:04:32;;;;;;;14.18;2.83;;;;;;;;;;5096179;28;20028;-76
2021/05/30 06:06:59;;;;;;;3.05;2.80;;;;;;;;;;5096184;28;20031;-76
2021/05/30 06:09:26;;;;;;;3.67;2.40;;;;;;;;;;5096484;28;20107;-76
2021/05/30 06:11:52;;;;;;;4.00;3.33;;;;;;;;;;5096842;28;20450;-74
2021/05/30 06:14:18;;;;;;;3.05;2.75;;;;;;;;;;5095773;28;20028;-75
2021/05/30 06:16:44;;;;;;;5.38;3.15;;;;;;;;;;5096351;28;20031;-74
2021/05/30 06:19:10;;;;;;;4.82;2.90;;;;;;;;;;5096040;28;20030;-72
2021/05/30 06:21:36;;;;;;;4.13;3.17;;;;;;;;;;5095402;28;20020;-74
2021/05/30 06:24:02;;;;;;;5.13;3.17;;;;;;;;;;5095376;28;20579;-74
2021/05/30 06:26:28;;;;;;;3.70;3.15;;;;;;;;;;5095268;28;20458;-72
2021/05/30 06:28:54;;;;;;;5.43;3.38;;;;;;;;;;5095012;28;20339;-73
2021/05/30 06:31:22;;;;;;;3.55;3.25;;;;;;;;;;5095057;28;20032;-74
2021/05/30 06:33:48;;;;;;;3.92;3.47;;;;;;;;;;5095356;28;20068;-73
2021/05/30 06:36:15;;;;;;;4.45;4.05;;;;;;;;;;5094956;28;20028;-72
2021/05/30 06:38:41;;;;;;;3.42;2.90;;;;;;;;;;5095280;28;20024;-72
2021/05/30 06:41:07;;;;;;;3.05;2.75;;;;;;;;;;5095357;28;20024;-75
2021/05/30 06:43:33;;;;;;;4.90;3.20;;;;;;;;;;5095529;28;20058;-74
2021/05/30 06:45:59;;;;;;;6.57;3.25;;;;;;;;;;5094751;28;20028;-75
2021/05/30 06:48:25;;;;;;;6.22;4.10;;;;;;;;;;5094320;28;20070;-76
2021/05/30 06:53:37;;;;;;;19.90;4.32;;;;;;;;;;5079516;28;20077;-75
2021/05/30 06:56:04;;;;;;;8.00;4.40;;;;;;;;;;5094327;28;20024;-75
2021/05/30 06:58:30;;;;;;;3.75;3.42;;;;;;;;;;5094496;28;20172;-74
2021/05/30 07:00:56;;;;;;;4.88;3.90;;;;;;;;;;5092774;28;20031;-78
2021/05/30 07:03:22;;;;;;;8.65;3.85;;;;;;;;;;5094797;28;20350;-81
2021/05/30 07:05:48;;;;;;;6.80;4.30;;;;;;;;;;5075607;28;20020;-73
2021/05/30 07:08:14;;;;;;;11.13;4.57;;;;;;;;;;5075707;28;20032;-75
2021/05/30 07:10:40;;;;;;;4.88;4.07;;;;;;;;;;5086722;28;20031;-73
2021/05/30 07:13:06;;;;;;;5.95;4.63;;;;;;;;;;5094435;28;20481;-73
2021/05/30 07:15:34;;;;;;;5.88;4.60;;;;;;;;;;5094647;28;20460;-73
2021/05/30 07:18:00;;;;;;;5.90;4.47;;;;;;;;;;5095372;28;20028;-72
2021/05/30 07:20:26;;;;;;;4.57;3.92;;;;;;;;;;5092939;28;20376;-72
2021/05/30 07:22:52;;;;;;;4.22;3.80;;;;;;;;;;5093776;28;20020;-71
2021/05/30 07:25:19;;;;;;;4.65;4.25;;;;;;;;;;5094497;28;20020;-72
2021/05/30 07:27:45;;;;;;;5.20;4.30;;;;;;;;;;5093740;28;20418;-71
2021/05/30 07:30:11;;;;;;;5.47;4.03;;;;;;;;;;5094198;28;20031;-70
2021/05/30 07:32:37;;;;;;;5.00;4.50;;;;;;;;;;5093740;28;20028;-72
2021/05/30 07:35:03;;;;;;;5.00;4.60;;;;;;;;;;5094198;28;20049;-75
2021/05/30 07:37:29;;;;;;;4.63;4.10;;;;;;;;;;5093729;28;20024;-72
2021/05/30 07:39:55;;;;;;;4.82;4.43;;;;;;;;;;5093875;28;20020;-73
2021/05/30 07:42:21;;;;;;;4.60;4.20;;;;;;;;;;5093422;28;20028;-72
2021/05/30 07:44:47;;;;;;;4.93;4.50;;;;;;;;;;5093474;28;20471;-71
2021/05/30 07:47:14;;;;;;;5.10;4.68;;;;;;;;;;5093805;28;20027;-71
2021/05/30 07:49:40;;;;;;;6.55;4.97;;;;;;;;;;5093815;28;20020;-70
2021/05/30 07:52:06;;;;;;;6.80;4.60;;;;;;;;;;5094000;28;20075;-70
2021/05/30 07:54:32;;;;;;;5.05;4.50;;;;;;;;;;5092867;28;20036;-70
2021/05/30 07:56:59;;;;;;;5.25;4.75;;;;;;;;;;5093290;28;20052;-70
2021/05/30 07:59:25;;;;;;;6.93;4.93;;;;;;;;;;5093555;28;20024;-71
2021/05/30 08:01:52;;;;;;;8.73;5.28;;;;;;;;;;5093979;28;20028;-70
2021/05/30 08:04:18;;;;;;;5.80;3.92;;;;;;;;;;5093178;28;20028;-70
2021/05/30 08:06:45;;;;;;;11.55;4.70;;;;;;;;;;5093441;28;20053;-71
2021/05/30 08:09:11;;;;;;;5.50;4.53;;;;;;;;;;5093483;28;20480;-73
2021/05/30 08:11:38;;;;;;;5.97;5.47;;;;;;;;;;5093009;28;20358;-71
2021/05/30 08:14:04;;;;;;;6.82;6.18;;;;;;;;;;5093479;28;20032;-72
2021/05/30 08:16:30;;;;;;;11.18;6.20;;;;;;;;;;5093070;28;20024;-72
2021/05/30 08:18:56;;;;;;;10.85;6.97;;;;;;;;;;5093442;28;20029;-73
2021/05/30 08:21:22;;;;;;;16.77;7.55;;;;;;;;;;5093572;28;20020;-75
2021/05/30 08:23:49;;;;;;;10.63;6.68;;;;;;;;;;5093262;28;20028;-70
2021/05/30 08:26:16;;;;;;;10.27;7.65;;;;;;;;;;5092565;28;20115;-71
2021/05/30 08:28:42;;;;;;;16.83;9.75;;;;;;;;;;5093360;28;20035;-69
2021/05/30 08:31:08;;;;;;;11.65;10.50;;;;;;;;;;5093784;28;20016;-68
2021/05/30 08:33:34;;;;;;;16.83;12.27;;;;;;;;;;5093003;28;20024;-68
2021/05/30 08:36:00;;;;;;;26.70;12.20;;;;;;;;;;5093120;28;20466;-67
2021/05/30 08:38:26;;;;;;;12.20;11.20;;;;;;;;;;5095342;28;20024;-71
2021/05/30 08:40:52;;;;;;;15.25;13.68;;;;;;;;;;5097158;28;20031;-75
2021/05/30 08:43:18;;;;;;;13.35;12.13;;;;;;;;;;5097977;28;20067;-69
2021/05/30 08:45:45;;;;;;;13.00;11.77;;;;;;;;;;5097291;28;20016;-70
2021/05/30 08:48:11;;;;;;;12.35;11.32;;;;;;;;;;5097355;28;20059;-70
2021/05/30 08:50:37;;;;;;;12.35;11.23;;;;;;;;;;5096414;28;20358;-69
2021/05/30 08:53:03;;;;;;;12.68;11.55;;;;;;;;;;5097286;28;20032;-69
2021/05/30 08:55:30;;;;;;;12.48;11.38;;;;;;;;;;5097141;28;20080;-71
2021/05/30 08:57:56;;;;;;;12.43;11.13;;;;;;;;;;5097260;28;20028;-71
2021/05/30 09:00:26;;;;;;;12.98;9.18;;;;;;;;;;5096829;28;20031;-71
2021/05/30 09:03:13;;;;;;;11.68;10.57;;;;;;;;;;5097174;28;20035;-74
2021/05/30 09:05:39;;;;;;;10.10;9.30;;;;;;;;;;5081735;28;20103;-74
2021/05/30 09:08:05;;;;;;;13.75;10.70;;;;;;;;;;5097035;28;20035;-70
2021/05/30 09:10:31;;;;;;;10.82;8.85;;;;;;;;;;5096278;28;20020;-69
2021/05/30 09:13:15;;;;;;;11.68;10.55;;;;;;;;;;5096635;28;20024;-71
2021/05/30 09:15:52;;;;;;;10.02;9.02;;;;;;;;;;5096230;28;20035;-78
2021/05/30 09:18:20;;;;;;;10.18;9.32;;;;;;;;;;5096070;28;20028;-71
2021/05/30 09:20:54;;;;;;;11.77;10.77;;;;;;;;;;5096881;28;20042;-71
2021/05/30 09:23:40;;;;;;;11.57;10.52;;;;;;;;;;5097216;28;20103;-71
2021/05/30 09:26:24;;;;;;;12.65;8.90;;;;;;;;;;5081724;28;20369;-74
2021/05/30 09:29:06;;;;;;;10.65;9.63;;;;;;;;;;5096241;28;20023;-74
2021/05/30 09:31:33;;;;;;;12.23;9.73;;;;;;;;;;5096433;28;20024;-70
2021/05/30 09:33:59;;;;;;;12.30;9.82;;;;;;;;;;5096191;28;20028;-70
2021/05/30 09:36:25;;;;;;;15.00;10.27;;;;;;;;;;5095978;28;20373;-71
2021/05/30 09:39:03;;;;;;;27.58;10.70;;;;;;;;;;5096625;28;20020;-70
2021/05/30 09:41:29;;;;;;;16.05;10.73;;;;;;;;;;5096287;28;20032;-72
2021/05/30 09:43:55;;;;;;;22.55;10.68;;;;;;;;;;5096637;28;20023;-72
2021/05/30 09:46:23;;;;;;;14.82;9.85;;;;;;;;;;5095992;28;20101;-74
2021/05/30 09:48:59;;;;;;;15.38;9.95;;;;;;;;;;5095662;28;20035;-74
2021/05/30 09:51:40;;;;;;;12.20;10.65;;;;;;;;;;5095473;28;20094;-71
2021/05/30 09:54:07;;;;;;;13.93;9.02;;;;;;;;;;5096066;28;20050;-72
2021/05/30 09:56:38;;;;;;;22.73;12.57;;;;;;;;;;5094976;28;20024;-74
2021/05/30 09:59:05;;;;;;;20.33;14.00;;;;;;;;;;5095848;28;20110;-73
2021/05/30 10:01:51;;;;;;;20.17;12.25;;;;;;;;;;5095599;28;20059;-72
2021/05/30 10:04:17;;;;;;;22.55;12.55;;;;;;;;;;5080457;28;20481;-73
2021/05/30 10:06:44;;;;;;;23.88;13.55;;;;;;;;;;5095915;28;20038;-73
2021/05/30 10:09:10;;;;;;;14.35;10.70;;;;;;;;;;5096189;28;20024;-73
2021/05/30 10:11:37;;;;;;;19.42;11.68;;;;;;;;;;5096086;28;20020;-73
2021/05/30 10:14:03;;;;;;;16.77;11.30;;;;;;;;;;5095911;28;20032;-78
2021/05/30 10:16:30;;;;;;;13.10;10.60;;;;;;;;;;5095483;28;20111;-74
2021/05/30 10:18:56;;;;;;;23.48;11.20;;;;;;;;;;5096712;28;20072;-77
2021/05/30 10:21:22;;;;;;;14.73;9.63;;;;;;;;;;5095617;28;20055;-73
2021/05/30 10:23:50;;;;;;;25.20;10.45;;;;;;;;;;5095988;28;20470;-73
2021/05/30 10:26:17;;;;;;;12.80;10.13;;;;;;;;;;5095356;28;20028;-73
2021/05/30 10:28:47;;;;;;;14.82;10.18;;;;;;;;;;5095328;28;20024;-71
2021/05/30 10:31:17;;;;;;;10.27;8.63;;;;;;;;;;5095239;28;20485;-73
2021/05/30 10:33:43;;;;;;;15.48;10.02;;;;;;;;;;5094755;28;20039;-70
2021/05/30 10:36:11;;;;;;;12.18;10.07;;;;;;;;;;5094948;28;20485;-75
2021/05/30 10:38:39;;;;;;;13.68;11.02;;;;;;;;;;5095725;28;20029;-73
2021/05/30 10:41:14;;;;;;;13.90;10.55;;;;;;;;;;5095739;28;20106;-72
2021/05/30 10:43:40;;;;;;;10.48;9.15;;;;;;;;;;5095912;28;20050;-76
2021/05/30 10:46:06;;;;;;;17.58;10.40;;;;;;;;;;5095781;28;20439;-79
2021/05/30 10:48:32;;;;;;;15.27;10.38;;;;;;;;;;5095518;28;20118;-72
2021/05/30 10:51:08;;;;;;;10.48;9.38;;;;;;;;;;5095044;28;20059;-74
2021/05/30 10:53:50;;;;;;;11.70;10.20;;;;;;;;;;5095355;28;20416;-73
2021/05/30 10:56:34;;;;;;;12.27;9.90;;;;;;;;;;5095921;28;20051;-75
2021/05/30 10:59:20;;;;;;;12.07;9.77;;;;;;;;;;5096827;28;20020;-77
2021/05/30 11:01:48;;;;;;;14.23;9.57;;;;;;;;;;5081067;28;20042;-75
2021/05/30 11:04:31;;;;;;;10.45;9.43;;;;;;;;;;5094892;28;20380;-72
2021/05/30 11:07:06;;;;;;;13.05;9.50;;;;;;;;;;5094638;28;20415;-72
2021/05/30 11:09:54;;;;;;;11.10;9.88;;;;;;;;;;5094223;28;20474;-71
2021/05/30 11:12:22;;;;;;;13.35;9.30;;;;;;;;;;5080142;28;20028;-71
2021/05/30 11:15:08;;;;;;;19.58;9.82;;;;;;;;;;5094220;28;20473;-72
2021/05/30 11:17:35;;;;;;;13.93;9.65;;;;;;;;;;5079679;28;20024;-71
2021/05/30 11:20:02;;;;;;;10.13;8.90;;;;;;;;;;5094272;28;20024;-71
2021/05/30 11:22:32;;;;;;;12.27;8.15;;;;;;;;;;5093889;28;20157;-71
2021/05/30 11:24:58;;;;;;;11.02;8.35;;;;;;;;;;5094817;28;20031;-71
2021/05/30 11:27:24;;;;;;;11.10;8.95;;;;;;;;;;5093967;28;20035;-71
2021/05/30 11:29:51;;;;;;;8.98;8.07;;;;;;;;;;5094100;28;20481;-71
2021/05/30 11:32:17;;;;;;;8.27;7.32;;;;;;;;;;5093635;28;20115;-71
2021/05/30 11:34:43;;;;;;;9.00;6.38;;;;;;;;;;5094115;28;20039;-71
2021/05/30 11:37:10;;;;;;;9.93;7.10;;;;;;;;;;5094242;28;20103;-70
2021/05/30 11:39:38;;;;;;;8.88;7.82;;;;;;;;;;5094124;28;20050;-72
2021/05/30 11:42:04;;;;;;;13.30;8.52;;;;;;;;;;5093725;28;20028;-73
2021/05/30 11:44:32;;;;;;;13.10;6.63;;;;;;;;;;5093973;28;20441;-72
2021/05/30 11:46:59;;;;;;;10.35;6.30;;;;;;;;;;5094050;28;20497;-71
2021/05/30 11:49:28;;;;;;;14.23;6.93;;;;;;;;;;5094441;28;20028;-70
2021/05/30 11:52:11;;;;;;;7.88;6.85;;;;;;;;;;5093330;28;20048;-71
2021/05/30 11:54:49;;;;;;;17.70;7.80;;;;;;;;;;5093857;28;20028;-73
2021/05/30 11:57:16;;;;;;;6.45;5.35;;;;;;;;;;5094258;28;20037;-70
2021/05/30 12:00:02;;;;;;;7.00;5.88;;;;;;;;;;5093185;28;20540;-73
2021/05/30 12:02:29;;;;;;;10.50;6.32;;;;;;;;;;5078493;28;20023;-71
2021/05/30 12:05:11;;;;;;;7.90;6.63;;;;;;;;;;5093501;28;20485;-72
2021/05/30 12:07:37;;;;;;;;;;;;;;;;;;5093542;28;20028;-71
2021/05/30 12:10:05;;;;;;;6.53;5.90;;;;;;;;;;5093459;28;19904;-72
2021/05/30 12:12:33;;;;;;;17.60;5.80;;;;;;;;;;5093013;28;20034;-72
2021/05/30 12:15:01;;;;;;;11.32;6.95;;;;;;;;;;5093897;28;20412;-73
2021/05/30 12:17:27;;;;;;;7.28;6.57;;;;;;;;;;5093857;28;20031;-77
2021/05/30 12:19:53;;;;;;;7.13;6.43;;;;;;;;;;5093896;28;20555;-72
2021/05/30 12:22:21;;;;;;;9.43;8.30;;;;;;;;;;5092936;28;20024;-71
2021/05/30 12:24:47;;;;;;;10.15;8.45;;;;;;;;;;5091981;28;20534;-72
2021/05/30 12:27:13;;;;;;;9.73;6.30;;;;;;;;;;5094856;28;20035;-72
2021/05/30 12:29:45;;;;;;;7.40;6.25;;;;;;;;;;5092667;28;20034;-73
2021/05/30 12:32:11;;;;;;;;;;;;;;;;;;5094187;28;20016;-76
2021/05/30 12:34:37;;;;;;;8.25;7.45;;;;;;;;;;5093033;28;19969;-73
2021/05/30 12:37:03;;;;;;;9.80;7.70;;;;;;;;;;5092593;28;20107;-72
2021/05/30 12:39:29;;;;;;;14.75;7.65;;;;;;;;;;5092329;28;20063;-73
2021/05/30 12:41:59;;;;;;;9.45;7.30;;;;;;;;;;5093760;28;20029;-71
2021/05/30 12:44:31;;;;;;;12.15;6.75;;;;;;;;;;5093291;28;20481;-72
2021/05/30 12:46:58;;;;;;;9.55;6.40;;;;;;;;;;5094040;28;20480;-76
2021/05/30 12:49:24;;;;;;;7.10;6.03;;;;;;;;;;5091796;28;20025;-76
2021/05/30 12:52:13;;;;;;;7.00;5.95;;;;;;;;;;5093262;28;20147;-75
2021/05/30 12:54:40;;;;;;;8.32;6.80;;;;;;;;;;5078838;28;20511;-76
2021/05/30 12:57:06;;;;;;;22.45;6.10;;;;;;;;;;5094141;28;20024;-78
2021/05/30 12:59:34;;;;;;;7.13;6.47;;;;;;;;;;5091816;28;20035;-76
2021/05/30 13:02:00;;;;;;;6.40;5.88;;;;;;;;;;5093461;28;20052;-77
2021/05/30 13:04:28;;;;;;;8.18;7.38;;;;;;;;;;5094150;28;20055;-77
2021/05/30 13:06:58;;;;;;;7.57;6.88;;;;;;;;;;5093942;28;20372;-75
2021/05/30 13:09:25;;;;;;;7.28;6.57;;;;;;;;;;5092734;28;20024;-77
2021/05/30 13:11:51;;;;;;;15.32;6.72;;;;;;;;;;5093293;28;20055;-75
2021/05/30 13:14:33;;;;;;;7.45;6.60;;;;;;;;;;5094119;28;20040;-76
2021/05/30 13:17:00;;;;;;;;;;;;;;;;;;5094656;28;20020;-76
2021/05/30 13:19:26;;;;;;;12.93;6.70;;;;;;;;;;5092477;28;20007;-75
2021/05/30 13:21:58;;;;;;;5.80;5.10;;;;;;;;;;5093317;28;20050;-77
2021/05/30 13:24:24;;;;;;;21.63;6.32;;;;;;;;;;5095488;28;20680;-76
2021/05/30 13:26:51;;;;;;;5.75;5.25;;;;;;;;;;5097464;28;20111;-75
2021/05/30 13:29:18;;;;;;;6.18;5.57;;;;;;;;;;5095261;28;20020;-72
2021/05/30 13:31:44;;;;;;;6.03;5.43;;;;;;;;;;5096782;28;20522;-76
2021/05/30 13:34:11;;;;;;;7.10;5.65;;;;;;;;;;5076424;28;20041;-75
2021/05/30 13:36:37;;;;;;;5.47;4.95;;;;;;;;;;5076272;28;20386;-75
2021/05/30 13:39:03;;;;;;;5.38;4.82;;;;;;;;;;5082064;28;20057;-75
2021/05/30 13:41:29;;;;;;;5.25;4.75;;;;;;;;;;5096490;28;20055;-72
2021/05/30 13:43:56;;;;;;;6.75;6.15;;;;;;;;;;5096846;28;20485;-74
2021/05/30 13:46:22;;;;;;;6.78;6.18;;;;;;;;;;5096662;28;20074;-72
2021/05/30 13:48:50;;;;;;;6.60;5.47;;;;;;;;;;5094893;28;20020;-76
2021/05/30 13:51:16;;;;;;;6.22;5.70;;;;;;;;;;5095691;28;20056;-74
2021/05/30 13:53:43;;;;;;;6.43;5.28;;;;;;;;;;5096372;28;20032;-76
2021/05/30 13:56:09;;;;;;;5.95;4.65;;;;;;;;;;5095915;28;20028;-76
2021/05/30 13:58:35;;;;;;;8.55;4.60;;;;;;;;;;5096051;28;20020;-76
2021/05/30 14:01:01;;;;;;;5.32;4.55;;;;;;;;;;5096420;28;20028;-74
2021/05/30 14:03:27;;;;;;;5.88;5.35;;;;;;;;;;5095773;28;20493;-77
2021/05/30 14:05:54;;;;;;;5.18;4.68;;;;;;;;;;5096387;28;20028;-75
2021/05/30 14:08:20;;;;;;;6.50;4.78;;;;;;;;;;5095941;28;20020;-77
2021/05/30 14:10:46;;;;;;;4.65;4.25;;;;;;;;;;5096416;28;20491;-74
2021/05/30 14:13:12;;;;;;;5.47;4.97;;;;;;;;;;5095117;28;20032;-73
2021/05/30 14:15:38;;;;;;;7.75;5.22;;;;;;;;;;5096145;28;20111;-73
2021/05/30 14:18:04;;;;;;;5.32;4.88;;;;;;;;;;5095607;28;20024;-73
2021/05/30 14:20:31;;;;;;;7.15;5.05;;;;;;;;;;5095201;28;20016;-75
2021/05/30 14:22:57;;;;;;;6.85;5.55;;;;;;;;;;5093814;28;20032;-72
2021/05/30 14:25:23;;;;;;;6.10;5.50;;;;;;;;;;5094622;28;20031;-72
2021/05/30 14:27:50;;;;;;;10.65;4.93;;;;;;;;;;5094776;28;20031;-71
2021/05/30 14:30:16;;;;;;;8.02;5.72;;;;;;;;;;5095174;28;20067;-72
2021/05/30 14:32:42;;;;;;;5.32;4.88;;;;;;;;;;5095116;28;20020;-73
2021/05/30 14:35:09;;;;;;;5.75;5.13;;;;;;;;;;5093759;28;20043;-75
2021/05/30 14:37:36;;;;;;;9.55;5.40;;;;;;;;;;5095631;28;20034;-73
2021/05/30 14:40:03;;;;;;;6.15;5.55;;;;;;;;;;5095110;28;20099;-75
2021/05/30 14:42:29;;;;;;;8.65;6.22;;;;;;;;;;5094388;28;20055;-74